sensor_id;sensor_type;location;lat;lon;timestamp;P1;durP1;ratioP1;P2;durP2;ratioP2
1020;SDS011;499;42.648;23.270;2022-07-09T00:01:24;10.10;;;9.30;;
1020;SDS011;499;42.648;23.270;2022-07-09T00:03:51;9.10;;;8.50;;
1020;SDS011;499;42.648;23.270;2022-07-09T00:06:18;9.53;;;8.70;;
1020;SDS011;499;42.648;23.270;2022-07-09T00:08:45;9.60;;;8.80;;
1020;SDS011;499;42.648;23.270;2022-07-09T00:11:12;10.37;;;9.53;;
1020;SDS011;499;42.648;23.270;2022-07-09T00:13:41;11.00;;;10.02;;
1020;SDS011;499;42.648;23.270;2022-07-09T00:16:08;10.83;;;10.03;;
1020;SDS011;499;42.648;23.270;2022-07-09T00:18:35;10.87;;;10.07;;
1020;SDS011;499;42.648;23.270;2022-07-09T00:21:02;10.63;;;9.83;;
1020;SDS011;499;42.648;23.270;2022-07-09T00:23:29;10.60;;;9.80;;
1020;SDS011;499;42.648;23.270;2022-07-09T00:25:56;12.60;;;11.70;;
1020;SDS011;499;42.648;23.270;2022-07-09T00:28:23;13.00;;;12.00;;
1020;SDS011;499;42.648;23.270;2022-07-09T00:30:52;11.37;;;10.50;;
1020;SDS011;499;42.648;23.270;2022-07-09T00:33:19;12.30;;;11.27;;
1020;SDS011;499;42.648;23.270;2022-07-09T00:35:46;12.33;;;11.37;;
1020;SDS011;499;42.648;23.270;2022-07-09T00:38:13;11.83;;;11.00;;
1020;SDS011;499;42.648;23.270;2022-07-09T00:40:41;11.10;;;10.30;;
1020;SDS011;499;42.648;23.270;2022-07-09T00:43:17;10.97;;;10.10;;
1020;SDS011;499;42.648;23.270;2022-07-09T00:45:45;11.17;;;10.33;;
1020;SDS011;499;42.648;23.270;2022-07-09T00:48:14;10.60;;;9.80;;
1020;SDS011;499;42.648;23.270;2022-07-09T00:50:42;11.57;;;10.67;;
1020;SDS011;499;42.648;23.270;2022-07-09T00:53:10;10.90;;;10.10;;
1020;SDS011;499;42.648;23.270;2022-07-09T00:55:40;11.10;;;10.10;;
1020;SDS011;499;42.648;23.270;2022-07-09T00:58:09;9.27;;;8.67;;
1020;SDS011;499;42.648;23.270;2022-07-09T01:00:38;9.80;;;9.07;;
1020;SDS011;499;42.648;23.270;2022-07-09T01:03:07;10.23;;;9.43;;
1020;SDS011;499;42.648;23.270;2022-07-09T01:05:35;9.80;;;9.10;;
1020;SDS011;499;42.648;23.270;2022-07-09T01:08:03;9.90;;;9.20;;
1020;SDS011;499;42.648;23.270;2022-07-09T01:10:31;10.30;;;9.50;;
1020;SDS011;499;42.648;23.270;2022-07-09T01:12:59;9.00;;;8.30;;
1020;SDS011;499;42.648;23.270;2022-07-09T01:15:27;10.00;;;9.20;;
1020;SDS011;499;42.648;23.270;2022-07-09T01:17:54;10.53;;;9.73;;
1020;SDS011;499;42.648;23.270;2022-07-09T01:20:25;9.80;;;9.10;;
1020;SDS011;499;42.648;23.270;2022-07-09T01:22:54;10.35;;;9.55;;
1020;SDS011;499;42.648;23.270;2022-07-09T01:25:24;10.00;;;9.10;;
1020;SDS011;499;42.648;23.270;2022-07-09T01:27:57;10.13;;;9.43;;
1020;SDS011;499;42.648;23.270;2022-07-09T01:30:25;9.87;;;9.17;;
1020;SDS011;499;42.648;23.270;2022-07-09T01:32:53;10.40;;;9.60;;
1020;SDS011;499;42.648;23.270;2022-07-09T01:35:20;10.90;;;10.00;;
1020;SDS011;499;42.648;23.270;2022-07-09T01:37:49;10.43;;;9.63;;
1020;SDS011;499;42.648;23.270;2022-07-09T01:40:16;10.10;;;9.40;;
1020;SDS011;499;42.648;23.270;2022-07-09T01:42:43;10.70;;;9.80;;
1020;SDS011;499;42.648;23.270;2022-07-09T01:45:10;9.97;;;9.17;;
1020;SDS011;499;42.648;23.270;2022-07-09T01:47:37;11.17;;;10.27;;
1020;SDS011;499;42.648;23.270;2022-07-09T01:50:05;10.13;;;9.33;;
1020;SDS011;499;42.648;23.270;2022-07-09T01:52:33;10.80;;;9.90;;
1020;SDS011;499;42.648;23.270;2022-07-09T01:55:02;9.53;;;8.80;;
1020;SDS011;499;42.648;23.270;2022-07-09T01:57:30;10.70;;;9.90;;
1020;SDS011;499;42.648;23.270;2022-07-09T01:59:57;11.20;;;10.30;;
1020;SDS011;499;42.648;23.270;2022-07-09T02:02:24;9.37;;;8.67;;
1020;SDS011;499;42.648;23.270;2022-07-09T02:04:51;10.30;;;9.60;;
1020;SDS011;499;42.648;23.270;2022-07-09T02:07:18;9.57;;;8.77;;
1020;SDS011;499;42.648;23.270;2022-07-09T02:09:45;9.33;;;8.63;;
1020;SDS011;499;42.648;23.270;2022-07-09T02:12:15;9.50;;;8.80;;
1020;SDS011;499;42.648;23.270;2022-07-09T02:14:42;9.43;;;8.73;;
1020;SDS011;499;42.648;23.270;2022-07-09T02:17:09;9.53;;;8.63;;
1020;SDS011;499;42.648;23.270;2022-07-09T02:19:37;8.63;;;8.00;;
1020;SDS011;499;42.648;23.270;2022-07-09T02:22:04;8.33;;;7.63;;
1020;SDS011;499;42.648;23.270;2022-07-09T02:24:31;7.40;;;6.90;;
1020;SDS011;499;42.648;23.270;2022-07-09T02:26:58;7.83;;;7.07;;
1020;SDS011;499;42.648;23.270;2022-07-09T02:29:27;7.40;;;6.70;;
1020;SDS011;499;42.648;23.270;2022-07-09T02:31:54;8.13;;;7.43;;
1020;SDS011;499;42.648;23.270;2022-07-09T02:34:22;7.83;;;7.23;;
1020;SDS011;499;42.648;23.270;2022-07-09T02:36:49;8.20;;;7.60;;
1020;SDS011;499;42.648;23.270;2022-07-09T02:39:16;8.90;;;8.10;;
1020;SDS011;499;42.648;23.270;2022-07-09T02:41:44;7.53;;;6.93;;
1020;SDS011;499;42.648;23.270;2022-07-09T02:44:11;8.07;;;7.47;;
1020;SDS011;499;42.648;23.270;2022-07-09T02:46:39;7.33;;;6.80;;
1020;SDS011;499;42.648;23.270;2022-07-09T02:49:06;8.00;;;7.40;;
1020;SDS011;499;42.648;23.270;2022-07-09T02:51:33;7.53;;;6.90;;
1020;SDS011;499;42.648;23.270;2022-07-09T02:54:00;7.93;;;7.33;;
1020;SDS011;499;42.648;23.270;2022-07-09T02:56:27;7.37;;;6.87;;
1020;SDS011;499;42.648;23.270;2022-07-09T02:58:54;7.83;;;7.20;;
1020;SDS011;499;42.648;23.270;2022-07-09T03:01:21;7.50;;;7.00;;
1020;SDS011;499;42.648;23.270;2022-07-09T03:03:50;7.00;;;6.50;;
1020;SDS011;499;42.648;23.270;2022-07-09T03:06:17;7.10;;;6.60;;
1020;SDS011;499;42.648;23.270;2022-07-09T03:08:44;7.13;;;6.63;;
1020;SDS011;499;42.648;23.270;2022-07-09T03:11:11;6.13;;;5.63;;
1020;SDS011;499;42.648;23.270;2022-07-09T03:13:38;6.90;;;6.40;;
1020;SDS011;499;42.648;23.270;2022-07-09T03:16:05;7.07;;;6.33;;
1020;SDS011;499;42.648;23.270;2022-07-09T03:18:33;7.23;;;6.73;;
1020;SDS011;499;42.648;23.270;2022-07-09T03:21:01;7.27;;;6.77;;
1020;SDS011;499;42.648;23.270;2022-07-09T03:23:28;7.20;;;6.70;;
1020;SDS011;499;42.648;23.270;2022-07-09T03:25:55;7.97;;;7.17;;
1020;SDS011;499;42.648;23.270;2022-07-09T03:28:22;7.17;;;6.50;;
1020;SDS011;499;42.648;23.270;2022-07-09T03:30:50;7.20;;;6.70;;
1020;SDS011;499;42.648;23.270;2022-07-09T03:33:17;7.27;;;6.77;;
1020;SDS011;499;42.648;23.270;2022-07-09T03:35:44;7.10;;;6.60;;
1020;SDS011;499;42.648;23.270;2022-07-09T03:38:12;7.50;;;6.90;;
1020;SDS011;499;42.648;23.270;2022-07-09T03:40:39;7.50;;;7.00;;
1020;SDS011;499;42.648;23.270;2022-07-09T03:43:06;7.18;;;6.68;;
1020;SDS011;499;42.648;23.270;2022-07-09T03:45:33;7.50;;;6.93;;
1020;SDS011;499;42.648;23.270;2022-07-09T03:48:00;7.57;;;6.90;;
1020;SDS011;499;42.648;23.270;2022-07-09T03:50:28;7.27;;;6.73;;
1020;SDS011;499;42.648;23.270;2022-07-09T03:52:55;7.27;;;6.77;;
1020;SDS011;499;42.648;23.270;2022-07-09T03:55:24;7.00;;;6.50;;
1020;SDS011;499;42.648;23.270;2022-07-09T03:57:51;7.20;;;6.70;;
1020;SDS011;499;42.648;23.270;2022-07-09T04:00:18;7.70;;;7.10;;
1020;SDS011;499;42.648;23.270;2022-07-09T04:02:45;7.30;;;6.70;;
1020;SDS011;499;42.648;23.270;2022-07-09T04:05:12;7.30;;;6.80;;
1020;SDS011;499;42.648;23.270;2022-07-09T04:07:40;7.50;;;6.90;;
1020;SDS011;499;42.648;23.270;2022-07-09T04:10:07;7.20;;;6.70;;
1020;SDS011;499;42.648;23.270;2022-07-09T04:12:36;7.10;;;6.60;;
1020;SDS011;499;42.648;23.270;2022-07-09T04:15:03;6.73;;;6.20;;
1020;SDS011;499;42.648;23.270;2022-07-09T04:17:31;6.47;;;6.03;;
1020;SDS011;499;42.648;23.270;2022-07-09T04:19:59;7.60;;;7.00;;
1020;SDS011;499;42.648;23.270;2022-07-09T04:22:26;6.93;;;6.43;;
1020;SDS011;499;42.648;23.270;2022-07-09T04:24:53;7.87;;;7.27;;
1020;SDS011;499;42.648;23.270;2022-07-09T04:27:20;6.67;;;6.17;;
1020;SDS011;499;42.648;23.270;2022-07-09T04:29:49;7.40;;;6.90;;
1020;SDS011;499;42.648;23.270;2022-07-09T04:32:16;6.60;;;6.10;;
1020;SDS011;499;42.648;23.270;2022-07-09T04:34:43;6.50;;;6.10;;
1020;SDS011;499;42.648;23.270;2022-07-09T04:37:10;7.30;;;6.70;;
1020;SDS011;499;42.648;23.270;2022-07-09T04:39:37;8.50;;;7.90;;
1020;SDS011;499;42.648;23.270;2022-07-09T04:42:04;7.97;;;7.27;;
1020;SDS011;499;42.648;23.270;2022-07-09T04:44:31;7.63;;;7.13;;
1020;SDS011;499;42.648;23.270;2022-07-09T04:47:00;8.77;;;8.07;;
1020;SDS011;499;42.648;23.270;2022-07-09T04:49:27;8.88;;;8.27;;
1020;SDS011;499;42.648;23.270;2022-07-09T04:51:54;7.90;;;7.30;;
1020;SDS011;499;42.648;23.270;2022-07-09T04:54:21;7.87;;;7.30;;
1020;SDS011;499;42.648;23.270;2022-07-09T04:56:48;7.30;;;6.70;;
1020;SDS011;499;42.648;23.270;2022-07-09T04:59:15;7.90;;;7.30;;
1020;SDS011;499;42.648;23.270;2022-07-09T05:01:42;6.90;;;6.40;;
1020;SDS011;499;42.648;23.270;2022-07-09T05:04:11;7.20;;;6.70;;
1020;SDS011;499;42.648;23.270;2022-07-09T05:06:38;7.23;;;6.63;;
1020;SDS011;499;42.648;23.270;2022-07-09T05:09:05;7.30;;;6.70;;
1020;SDS011;499;42.648;23.270;2022-07-09T05:11:32;7.10;;;6.50;;
1020;SDS011;499;42.648;23.270;2022-07-09T05:13:59;6.73;;;6.23;;
1020;SDS011;499;42.648;23.270;2022-07-09T05:16:26;7.10;;;6.50;;
1020;SDS011;499;42.648;23.270;2022-07-09T05:18:53;6.20;;;5.70;;
1020;SDS011;499;42.648;23.270;2022-07-09T05:21:22;7.10;;;6.60;;
1020;SDS011;499;42.648;23.270;2022-07-09T05:23:50;6.50;;;6.00;;
1020;SDS011;499;42.648;23.270;2022-07-09T05:26:17;6.20;;;5.80;;
1020;SDS011;499;42.648;23.270;2022-07-09T05:28:44;6.90;;;6.40;;
1020;SDS011;499;42.648;23.270;2022-07-09T05:31:11;6.37;;;5.87;;
1020;SDS011;499;42.648;23.270;2022-07-09T05:33:38;6.33;;;5.83;;
1020;SDS011;499;42.648;23.270;2022-07-09T05:36:05;6.60;;;6.00;;
1020;SDS011;499;42.648;23.270;2022-07-09T05:38:34;5.93;;;5.53;;
1020;SDS011;499;42.648;23.270;2022-07-09T05:41:01;6.13;;;5.55;;
1020;SDS011;499;42.648;23.270;2022-07-09T05:43:29;6.47;;;5.90;;
1020;SDS011;499;42.648;23.270;2022-07-09T05:45:56;6.17;;;5.67;;
1020;SDS011;499;42.648;23.270;2022-07-09T05:48:24;5.53;;;5.00;;
1020;SDS011;499;42.648;23.270;2022-07-09T05:50:51;5.60;;;5.20;;
1020;SDS011;499;42.648;23.270;2022-07-09T05:53:19;5.57;;;5.17;;
1020;SDS011;499;42.648;23.270;2022-07-09T05:55:48;5.90;;;5.50;;
1020;SDS011;499;42.648;23.270;2022-07-09T05:58:15;5.50;;;5.07;;
1020;SDS011;499;42.648;23.270;2022-07-09T06:00:42;5.50;;;5.10;;
1020;SDS011;499;42.648;23.270;2022-07-09T06:03:09;5.37;;;4.97;;
1020;SDS011;499;42.648;23.270;2022-07-09T06:05:36;5.60;;;5.10;;
1020;SDS011;499;42.648;23.270;2022-07-09T06:08:04;5.53;;;5.03;;
1020;SDS011;499;42.648;23.270;2022-07-09T06:10:31;5.10;;;4.70;;
1020;SDS011;499;42.648;23.270;2022-07-09T06:12:59;5.37;;;4.87;;
1020;SDS011;499;42.648;23.270;2022-07-09T06:15:26;5.57;;;5.18;;
1020;SDS011;499;42.648;23.270;2022-07-09T06:17:53;5.43;;;5.07;;
1020;SDS011;499;42.648;23.270;2022-07-09T06:20:20;5.30;;;4.90;;
1020;SDS011;499;42.648;23.270;2022-07-09T06:22:47;5.43;;;4.97;;
1020;SDS011;499;42.648;23.270;2022-07-09T06:25:15;5.53;;;5.13;;
1020;SDS011;499;42.648;23.270;2022-07-09T06:27:42;6.10;;;5.60;;
1020;SDS011;499;42.648;23.270;2022-07-09T06:30:10;5.70;;;5.20;;
1020;SDS011;499;42.648;23.270;2022-07-09T06:32:38;5.30;;;4.80;;
1020;SDS011;499;42.648;23.270;2022-07-09T06:35:05;5.43;;;4.93;;
1020;SDS011;499;42.648;23.270;2022-07-09T06:37:33;5.77;;;5.27;;
1020;SDS011;499;42.648;23.270;2022-07-09T06:40:00;5.40;;;4.90;;
1020;SDS011;499;42.648;23.270;2022-07-09T06:42:27;5.40;;;5.00;;
1020;SDS011;499;42.648;23.270;2022-07-09T06:44:54;4.90;;;4.50;;
1020;SDS011;499;42.648;23.270;2022-07-09T06:47:22;5.83;;;5.13;;
1020;SDS011;499;42.648;23.270;2022-07-09T06:49:50;5.10;;;4.70;;
1020;SDS011;499;42.648;23.270;2022-07-09T06:52:17;5.47;;;5.07;;
1020;SDS011;499;42.648;23.270;2022-07-09T06:54:44;6.10;;;5.60;;
1020;SDS011;499;42.648;23.270;2022-07-09T06:57:11;6.00;;;5.60;;
1020;SDS011;499;42.648;23.270;2022-07-09T06:59:39;5.80;;;5.40;;
1020;SDS011;499;42.648;23.270;2022-07-09T07:02:06;6.10;;;5.70;;
1020;SDS011;499;42.648;23.270;2022-07-09T07:04:35;5.70;;;5.30;;
1020;SDS011;499;42.648;23.270;2022-07-09T07:07:02;5.53;;;5.13;;
1020;SDS011;499;42.648;23.270;2022-07-09T07:09:29;6.00;;;5.50;;
1020;SDS011;499;42.648;23.270;2022-07-09T07:11:56;5.70;;;5.30;;
1020;SDS011;499;42.648;23.270;2022-07-09T07:14:23;6.83;;;6.23;;
1020;SDS011;499;42.648;23.270;2022-07-09T07:16:51;6.17;;;5.70;;
1020;SDS011;499;42.648;23.270;2022-07-09T07:19:18;6.90;;;6.40;;
1020;SDS011;499;42.648;23.270;2022-07-09T07:21:48;6.70;;;6.20;;
1020;SDS011;499;42.648;23.270;2022-07-09T07:24:15;6.83;;;6.33;;
1020;SDS011;499;42.648;23.270;2022-07-09T07:26:42;7.20;;;6.57;;
1020;SDS011;499;42.648;23.270;2022-07-09T07:29:09;7.10;;;6.60;;
1020;SDS011;499;42.648;23.270;2022-07-09T07:31:36;6.90;;;6.30;;
1020;SDS011;499;42.648;23.270;2022-07-09T07:34:04;7.37;;;6.77;;
1020;SDS011;499;42.648;23.270;2022-07-09T07:36:31;7.37;;;6.73;;
1020;SDS011;499;42.648;23.270;2022-07-09T07:39:01;8.60;;;7.82;;
1020;SDS011;499;42.648;23.270;2022-07-09T07:41:28;8.83;;;8.23;;
1020;SDS011;499;42.648;23.270;2022-07-09T07:43:55;8.30;;;7.50;;
1020;SDS011;499;42.648;23.270;2022-07-09T07:46:22;8.90;;;7.70;;
1020;SDS011;499;42.648;23.270;2022-07-09T07:48:49;8.03;;;7.43;;
1020;SDS011;499;42.648;23.270;2022-07-09T07:51:16;7.90;;;7.30;;
1020;SDS011;499;42.648;23.270;2022-07-09T07:53:43;8.40;;;7.80;;
1020;SDS011;499;42.648;23.270;2022-07-09T07:56:12;8.80;;;8.10;;
1020;SDS011;499;42.648;23.270;2022-07-09T07:58:39;8.40;;;7.80;;
1020;SDS011;499;42.648;23.270;2022-07-09T08:01:06;7.57;;;7.07;;
1020;SDS011;499;42.648;23.270;2022-07-09T08:03:33;7.37;;;6.80;;
1020;SDS011;499;42.648;23.270;2022-07-09T08:06:00;7.33;;;6.83;;
1020;SDS011;499;42.648;23.270;2022-07-09T08:08:27;7.00;;;6.50;;
1020;SDS011;499;42.648;23.270;2022-07-09T08:10:54;7.10;;;6.60;;
1020;SDS011;499;42.648;23.270;2022-07-09T08:13:24;7.10;;;6.60;;
1020;SDS011;499;42.648;23.270;2022-07-09T08:15:54;7.80;;;7.30;;
1020;SDS011;499;42.648;23.270;2022-07-09T08:18:21;6.97;;;6.47;;
1020;SDS011;499;42.648;23.270;2022-07-09T08:20:48;7.67;;;6.97;;
1020;SDS011;499;42.648;23.270;2022-07-09T08:23:17;7.93;;;7.33;;
1020;SDS011;499;42.648;23.270;2022-07-09T08:25:44;8.17;;;7.57;;
1020;SDS011;499;42.648;23.270;2022-07-09T08:28:11;7.73;;;7.13;;
1020;SDS011;499;42.648;23.270;2022-07-09T08:30:39;8.40;;;7.70;;
1020;SDS011;499;42.648;23.270;2022-07-09T08:33:06;7.67;;;7.17;;
1020;SDS011;499;42.648;23.270;2022-07-09T08:35:34;7.43;;;6.93;;
1020;SDS011;499;42.648;23.270;2022-07-09T08:38:01;6.67;;;6.17;;
1020;SDS011;499;42.648;23.270;2022-07-09T08:40:28;7.70;;;7.10;;
1020;SDS011;499;42.648;23.270;2022-07-09T08:42:56;6.80;;;6.30;;
1020;SDS011;499;42.648;23.270;2022-07-09T08:45:29;6.70;;;6.20;;
1020;SDS011;499;42.648;23.270;2022-07-09T08:47:58;6.80;;;6.30;;
1020;SDS011;499;42.648;23.270;2022-07-09T08:50:27;7.93;;;7.33;;
1020;SDS011;499;42.648;23.270;2022-07-09T08:52:54;8.27;;;7.40;;
1020;SDS011;499;42.648;23.270;2022-07-09T08:55:22;8.40;;;7.80;;
1020;SDS011;499;42.648;23.270;2022-07-09T08:57:49;9.00;;;8.40;;
1020;SDS011;499;42.648;23.270;2022-07-09T09:00:16;7.93;;;7.33;;
1020;SDS011;499;42.648;23.270;2022-07-09T09:02:43;8.60;;;7.90;;
1020;SDS011;499;42.648;23.270;2022-07-09T09:05:13;9.47;;;8.77;;
1020;SDS011;499;42.648;23.270;2022-07-09T09:07:41;9.93;;;9.13;;
1020;SDS011;499;42.648;23.270;2022-07-09T09:10:19;8.23;;;7.63;;
1020;SDS011;499;42.648;23.270;2022-07-09T09:12:48;8.73;;;8.05;;
1020;SDS011;499;42.648;23.270;2022-07-09T09:15:16;8.13;;;7.43;;
1020;SDS011;499;42.648;23.270;2022-07-09T09:17:44;8.88;;;8.18;;
1020;SDS011;499;42.648;23.270;2022-07-09T09:20:13;8.93;;;8.33;;
1020;SDS011;499;42.648;23.270;2022-07-09T09:22:45;9.13;;;8.27;;
1020;SDS011;499;42.648;23.270;2022-07-09T09:25:17;10.20;;;9.20;;
1020;SDS011;499;42.648;23.270;2022-07-09T09:27:51;8.97;;;8.37;;
1020;SDS011;499;42.648;23.270;2022-07-09T09:30:18;8.80;;;8.20;;
1020;SDS011;499;42.648;23.270;2022-07-09T09:32:53;9.57;;;8.87;;
1020;SDS011;499;42.648;23.270;2022-07-09T09:35:23;10.40;;;9.53;;
1020;SDS011;499;42.648;23.270;2022-07-09T09:37:50;9.53;;;8.80;;
1020;SDS011;499;42.648;23.270;2022-07-09T09:40:17;10.80;;;9.90;;
1020;SDS011;499;42.648;23.270;2022-07-09T09:42:45;10.27;;;9.47;;
1020;SDS011;499;42.648;23.270;2022-07-09T09:45:12;9.03;;;8.33;;
1020;SDS011;499;42.648;23.270;2022-07-09T09:47:41;10.10;;;9.40;;
1020;SDS011;499;42.648;23.270;2022-07-09T09:50:13;9.97;;;9.17;;
1020;SDS011;499;42.648;23.270;2022-07-09T09:52:46;9.30;;;8.60;;
1020;SDS011;499;42.648;23.270;2022-07-09T09:55:14;9.23;;;8.53;;
1020;SDS011;499;42.648;23.270;2022-07-09T09:57:42;9.87;;;9.17;;
1020;SDS011;499;42.648;23.270;2022-07-09T10:00:11;9.03;;;8.27;;
1020;SDS011;499;42.648;23.270;2022-07-09T10:02:39;9.97;;;9.20;;
1020;SDS011;499;42.648;23.270;2022-07-09T10:05:09;9.30;;;8.50;;
1020;SDS011;499;42.648;23.270;2022-07-09T10:07:37;9.50;;;8.80;;
1020;SDS011;499;42.648;23.270;2022-07-09T10:10:07;9.80;;;9.10;;
1020;SDS011;499;42.648;23.270;2022-07-09T10:12:34;8.97;;;8.37;;
1020;SDS011;499;42.648;23.270;2022-07-09T10:15:07;9.37;;;8.67;;
1020;SDS011;499;42.648;23.270;2022-07-09T10:17:45;8.90;;;8.20;;
1020;SDS011;499;42.648;23.270;2022-07-09T10:20:12;9.60;;;8.90;;
1020;SDS011;499;42.648;23.270;2022-07-09T10:22:40;10.02;;;9.13;;
1020;SDS011;499;42.648;23.270;2022-07-09T10:25:10;10.07;;;9.37;;
1020;SDS011;499;42.648;23.270;2022-07-09T10:27:42;9.20;;;8.50;;
1020;SDS011;499;42.648;23.270;2022-07-09T10:30:21;10.27;;;9.50;;
1020;SDS011;499;42.648;23.270;2022-07-09T10:33:03;9.47;;;8.70;;
1020;SDS011;499;42.648;23.270;2022-07-09T10:35:31;10.20;;;9.50;;
1020;SDS011;499;42.648;23.270;2022-07-09T10:38:06;8.67;;;7.97;;
1020;SDS011;499;42.648;23.270;2022-07-09T10:40:39;9.33;;;8.33;;
1020;SDS011;499;42.648;23.270;2022-07-09T10:43:06;9.27;;;8.53;;
1020;SDS011;499;42.648;23.270;2022-07-09T10:45:38;6.77;;;6.27;;
1020;SDS011;499;42.648;23.270;2022-07-09T10:48:07;7.23;;;5.60;;
1020;SDS011;499;42.648;23.270;2022-07-09T10:50:37;6.57;;;6.07;;
1020;SDS011;499;42.648;23.270;2022-07-09T10:53:06;4.90;;;4.50;;
1020;SDS011;499;42.648;23.270;2022-07-09T10:55:33;5.18;;;4.78;;
1020;SDS011;499;42.648;23.270;2022-07-09T10:58:02;5.60;;;5.10;;
1020;SDS011;499;42.648;23.270;2022-07-09T11:00:32;5.00;;;4.60;;
1020;SDS011;499;42.648;23.270;2022-07-09T11:03:01;4.33;;;4.00;;
1020;SDS011;499;42.648;23.270;2022-07-09T11:05:29;3.70;;;3.40;;
1020;SDS011;499;42.648;23.270;2022-07-09T11:07:58;4.05;;;3.75;;
1020;SDS011;499;42.648;23.270;2022-07-09T11:10:27;3.90;;;3.60;;
1020;SDS011;499;42.648;23.270;2022-07-09T11:12:55;4.23;;;3.93;;
1020;SDS011;499;42.648;23.270;2022-07-09T11:15:26;4.32;;;4.03;;
1020;SDS011;499;42.648;23.270;2022-07-09T11:17:55;4.43;;;4.13;;
1020;SDS011;499;42.648;23.270;2022-07-09T11:20:25;4.90;;;4.40;;
1020;SDS011;499;42.648;23.270;2022-07-09T11:22:53;9.33;;;4.43;;
1020;SDS011;499;42.648;23.270;2022-07-09T11:25:22;5.03;;;4.63;;
1020;SDS011;499;42.648;23.270;2022-07-09T11:27:52;4.40;;;4.00;;
1020;SDS011;499;42.648;23.270;2022-07-09T11:30:19;5.17;;;4.67;;
1020;SDS011;499;42.648;23.270;2022-07-09T11:32:48;5.00;;;4.60;;
1020;SDS011;499;42.648;23.270;2022-07-09T11:35:25;5.37;;;4.87;;
1020;SDS011;499;42.648;23.270;2022-07-09T11:37:53;4.83;;;4.43;;
1020;SDS011;499;42.648;23.270;2022-07-09T11:40:20;5.57;;;5.13;;
1020;SDS011;499;42.648;23.270;2022-07-09T11:42:48;5.10;;;4.70;;
1020;SDS011;499;42.648;23.270;2022-07-09T11:45:19;5.03;;;4.73;;
1020;SDS011;499;42.648;23.270;2022-07-09T11:47:48;4.83;;;4.53;;
1020;SDS011;499;42.648;23.270;2022-07-09T11:50:16;4.20;;;3.90;;
1020;SDS011;499;42.648;23.270;2022-07-09T11:52:45;4.60;;;4.30;;
1020;SDS011;499;42.648;23.270;2022-07-09T11:55:14;4.60;;;4.30;;
1020;SDS011;499;42.648;23.270;2022-07-09T11:57:52;4.70;;;4.30;;
1020;SDS011;499;42.648;23.270;2022-07-09T12:00:21;4.60;;;4.20;;
1020;SDS011;499;42.648;23.270;2022-07-09T12:02:51;4.70;;;4.40;;
1020;SDS011;499;42.648;23.270;2022-07-09T12:05:25;4.70;;;4.30;;
1020;SDS011;499;42.648;23.270;2022-07-09T12:07:56;4.80;;;4.40;;
1020;SDS011;499;42.648;23.270;2022-07-09T12:10:28;4.70;;;4.30;;
1020;SDS011;499;42.648;23.270;2022-07-09T12:12:57;4.60;;;4.30;;
1020;SDS011;499;42.648;23.270;2022-07-09T12:15:25;4.43;;;4.13;;
1020;SDS011;499;42.648;23.270;2022-07-09T12:17:54;5.10;;;4.80;;
1020;SDS011;499;42.648;23.270;2022-07-09T12:20:23;4.90;;;4.50;;
1020;SDS011;499;42.648;23.270;2022-07-09T12:22:51;5.50;;;5.00;;
1020;SDS011;499;42.648;23.270;2022-07-09T12:25:18;4.40;;;4.10;;
1020;SDS011;499;42.648;23.270;2022-07-09T12:27:46;5.00;;;4.60;;
1020;SDS011;499;42.648;23.270;2022-07-09T12:30:14;5.87;;;5.37;;
1020;SDS011;499;42.648;23.270;2022-07-09T12:32:41;4.00;;;3.70;;
1020;SDS011;499;42.648;23.270;2022-07-09T12:35:11;4.30;;;4.00;;
1020;SDS011;499;42.648;23.270;2022-07-09T12:37:39;4.20;;;3.90;;
1020;SDS011;499;42.648;23.270;2022-07-09T12:40:08;4.00;;;3.70;;
1020;SDS011;499;42.648;23.270;2022-07-09T12:42:36;3.43;;;3.17;;
1020;SDS011;499;42.648;23.270;2022-07-09T12:45:04;3.37;;;3.17;;
1020;SDS011;499;42.648;23.270;2022-07-09T12:47:32;3.40;;;3.20;;
1020;SDS011;499;42.648;23.270;2022-07-09T12:49:59;3.87;;;3.57;;
1020;SDS011;499;42.648;23.270;2022-07-09T12:52:30;3.57;;;3.33;;
1020;SDS011;499;42.648;23.270;2022-07-09T12:54:58;3.20;;;3.00;;
1020;SDS011;499;42.648;23.270;2022-07-09T12:57:26;3.67;;;3.37;;
1020;SDS011;499;42.648;23.270;2022-07-09T12:59:53;4.07;;;3.77;;
1020;SDS011;499;42.648;23.270;2022-07-09T13:02:21;4.20;;;3.90;;
1020;SDS011;499;42.648;23.270;2022-07-09T13:04:48;3.90;;;3.60;;
1020;SDS011;499;42.648;23.270;2022-07-09T13:07:15;4.13;;;3.83;;
1020;SDS011;499;42.648;23.270;2022-07-09T13:09:43;4.67;;;4.27;;
1020;SDS011;499;42.648;23.270;2022-07-09T13:12:11;4.33;;;3.90;;
1020;SDS011;499;42.648;23.270;2022-07-09T13:14:38;3.93;;;3.63;;
1020;SDS011;499;42.648;23.270;2022-07-09T13:17:05;4.13;;;3.83;;
1020;SDS011;499;42.648;23.270;2022-07-09T13:19:32;3.90;;;3.60;;
1020;SDS011;499;42.648;23.270;2022-07-09T13:21:59;4.60;;;4.30;;
1020;SDS011;499;42.648;23.270;2022-07-09T13:24:26;5.40;;;4.90;;
1020;SDS011;499;42.648;23.270;2022-07-09T13:26:55;4.77;;;4.47;;
1020;SDS011;499;42.648;23.270;2022-07-09T13:29:22;3.80;;;3.50;;
1020;SDS011;499;42.648;23.270;2022-07-09T13:31:49;4.83;;;4.50;;
1020;SDS011;499;42.648;23.270;2022-07-09T13:34:16;4.13;;;3.83;;
1020;SDS011;499;42.648;23.270;2022-07-09T13:36:43;4.20;;;3.90;;
1020;SDS011;499;42.648;23.270;2022-07-09T13:39:10;4.60;;;4.30;;
1020;SDS011;499;42.648;23.270;2022-07-09T13:41:37;4.33;;;4.03;;
1020;SDS011;499;42.648;23.270;2022-07-09T13:44:06;6.30;;;5.80;;
1020;SDS011;499;42.648;23.270;2022-07-09T13:46:33;4.40;;;4.00;;
1020;SDS011;499;42.648;23.270;2022-07-09T13:49:00;4.93;;;4.53;;
1020;SDS011;499;42.648;23.270;2022-07-09T13:51:28;5.43;;;4.97;;
1020;SDS011;499;42.648;23.270;2022-07-09T13:53:55;4.40;;;4.10;;
1020;SDS011;499;42.648;23.270;2022-07-09T13:56:22;4.43;;;4.03;;
1020;SDS011;499;42.648;23.270;2022-07-09T13:58:50;4.27;;;3.90;;
1020;SDS011;499;42.648;23.270;2022-07-09T14:01:18;6.65;;;4.57;;
1020;SDS011;499;42.648;23.270;2022-07-09T14:03:45;4.30;;;4.00;;
1020;SDS011;499;42.648;23.270;2022-07-09T14:06:12;4.30;;;4.00;;
1020;SDS011;499;42.648;23.270;2022-07-09T14:08:40;4.43;;;4.13;;
1020;SDS011;499;42.648;23.270;2022-07-09T14:11:07;4.33;;;4.03;;
1020;SDS011;499;42.648;23.270;2022-07-09T14:13:34;4.57;;;3.93;;
1020;SDS011;499;42.648;23.270;2022-07-09T14:16:01;5.78;;;3.90;;
1020;SDS011;499;42.648;23.270;2022-07-09T14:18:30;5.00;;;4.60;;
1020;SDS011;499;42.648;23.270;2022-07-09T14:20:58;5.60;;;4.93;;
1020;SDS011;499;42.648;23.270;2022-07-09T14:23:25;4.80;;;4.40;;
1020;SDS011;499;42.648;23.270;2022-07-09T14:25:52;4.23;;;3.93;;
1020;SDS011;499;42.648;23.270;2022-07-09T14:28:19;5.33;;;4.70;;
1020;SDS011;499;42.648;23.270;2022-07-09T14:30:46;4.72;;;4.28;;
1020;SDS011;499;42.648;23.270;2022-07-09T14:33:13;4.53;;;4.23;;
1020;SDS011;499;42.648;23.270;2022-07-09T14:35:42;4.57;;;4.27;;
1020;SDS011;499;42.648;23.270;2022-07-09T14:38:09;3.95;;;3.65;;
1020;SDS011;499;42.648;23.270;2022-07-09T14:40:36;6.03;;;5.60;;
1020;SDS011;499;42.648;23.270;2022-07-09T14:43:03;6.07;;;5.57;;
1020;SDS011;499;42.648;23.270;2022-07-09T14:45:31;10.37;;;9.53;;
1020;SDS011;499;42.648;23.270;2022-07-09T14:47:58;7.20;;;6.70;;
1020;SDS011;499;42.648;23.270;2022-07-09T14:50:25;6.37;;;5.87;;
1020;SDS011;499;42.648;23.270;2022-07-09T14:52:53;11.53;;;10.50;;
1020;SDS011;499;42.648;23.270;2022-07-09T14:55:21;5.80;;;5.40;;
1020;SDS011;499;42.648;23.270;2022-07-09T14:57:48;5.57;;;5.17;;
1020;SDS011;499;42.648;23.270;2022-07-09T15:00:15;6.07;;;5.57;;
1020;SDS011;499;42.648;23.270;2022-07-09T15:02:42;10.10;;;9.13;;
1020;SDS011;499;42.648;23.270;2022-07-09T15:05:09;8.03;;;7.33;;
1020;SDS011;499;42.648;23.270;2022-07-09T15:07:36;10.40;;;9.60;;
1020;SDS011;499;42.648;23.270;2022-07-09T15:10:06;7.10;;;6.50;;
1020;SDS011;499;42.648;23.270;2022-07-09T15:12:33;11.03;;;10.03;;
1020;SDS011;499;42.648;23.270;2022-07-09T15:15:00;7.80;;;7.20;;
1020;SDS011;499;42.648;23.270;2022-07-09T15:17:27;5.80;;;5.33;;